Time;durP1;ratioP1;P1;durP2;ratioP2;P2;SDS_P1;SDS_P2;PMS_P1;PMS_P2;Temp;Humidity;BMP_temperature;BMP_pressure;BME280_temperature;BME280_humidity;BME280_pressure;Samples;Min_cycle;Max_cycle;Signal;HPM_P1;HPM_P2
2022/03/11 00:01:52;;;;;;;6.03;3.40;;;-0.60;84.90;;;;;;4953896;28;20199;-75
2022/03/11 00:04:18;;;;;;;6.07;3.47;;;-0.70;85.60;;;;;;4953813;29;20194;-75
2022/03/11 00:06:43;;;;;;;6.10;3.10;;;-0.70;85.30;;;;;;4953808;29;20183;-76
2022/03/11 00:09:09;;;;;;;4.97;3.07;;;-0.70;84.90;;;;;;4953564;29;20294;-75
2022/03/11 00:11:34;;;;;;;7.77;3.07;;;-0.70;84.10;;;;;;4953691;28;20258;-76
2022/03/11 00:14:00;;;;;;;5.13;3.47;;;-0.80;83.60;;;;;;4953701;29;20199;-76
2022/03/11 00:16:26;;;;;;;9.07;4.53;;;-0.70;81.60;;;;;;4936640;29;20213;-75
2022/03/11 00:18:52;;;;;;;6.23;3.40;;;-0.70;80.40;;;;;;4953509;29;20450;-77
2022/03/11 00:21:17;;;;;;;7.03;4.13;;;-0.80;80.40;;;;;;4953695;28;20198;-75
2022/03/11 00:23:43;;;;;;;7.43;3.57;;;-0.80;79.00;;;;;;4953683;29;20523;-76
2022/03/11 00:26:11;;;;;;;11.27;3.73;;;-0.80;78.20;;;;;;4936226;29;20179;-75
2022/03/11 00:28:38;;;;;;;6.23;3.60;;;-0.80;77.70;;;;;;4953479;29;20386;-75
2022/03/11 00:31:05;;;;;;;4.70;2.50;;;-1.00;78.30;;;;;;4936388;29;20450;-75
2022/03/11 00:33:31;;;;;;;6.00;3.17;;;-1.00;77.70;;;;;;4953562;29;20461;-76
2022/03/11 00:35:56;;;;;;;6.10;3.63;;;-1.00;76.60;;;;;;4936232;29;20422;-76
2022/03/11 00:38:22;;;;;;;8.57;3.60;;;-1.10;77.10;;;;;;4954904;28;20411;-75
2022/03/11 00:40:48;;;;;;;5.77;3.57;;;-1.00;75.90;;;;;;4957234;28;20191;-75
2022/03/11 00:43:13;;;;;;;4.80;2.90;;;-1.00;75.70;;;;;;4957293;29;20273;-75
2022/03/11 00:45:39;;;;;;;7.00;3.57;;;-1.10;75.70;;;;;;4957202;29;20648;-75
2022/03/11 00:48:04;;;;;;;7.00;3.80;;;-1.10;75.70;;;;;;4956828;29;20234;-75
2022/03/11 00:50:30;;;;;;;3.40;2.00;;;-1.20;75.90;;;;;;4956975;28;20187;-76
2022/03/11 00:52:55;;;;;;;6.00;3.33;;;-1.20;76.20;;;;;;4957036;29;20211;-76
2022/03/11 00:55:21;;;;;;;6.83;3.47;;;-1.20;77.10;;;;;;4956903;29;20190;-77
2022/03/11 00:57:46;;;;;;;7.23;4.33;;;-1.30;77.00;;;;;;4956863;29;20713;-75
2022/03/11 05:01:54;;;;;;;7.53;3.50;;;-3.50;85.80;;;;;;5281470;23;20489;-76
2022/03/11 05:04:19;;;;;;;8.87;3.43;;;-3.50;86.00;;;;;;4976015;28;20755;-75
2022/03/11 05:06:45;;;;;;;6.47;3.97;;;-3.50;86.00;;;;;;4970713;28;20515;-76
2022/03/11 05:09:10;;;;;;;8.73;3.10;;;-3.50;86.20;;;;;;4965791;28;20576;-75
2022/03/11 05:11:37;;;;;;;6.90;4.53;;;-3.60;86.80;;;;;;4964264;28;20203;-75
2022/03/11 05:14:06;;;;;;;5.27;3.33;;;-3.60;86.30;;;;;;4957596;29;20206;-75
2022/03/11 05:16:31;;;;;;;5.93;2.57;;;-3.60;86.50;;;;;;4958512;29;20442;-74
2022/03/11 05:18:57;;;;;;;6.43;4.27;;;-3.50;85.90;;;;;;4962656;29;20789;-75
2022/03/11 05:29:09;;;;;;;5.43;3.37;;;-3.60;86.50;;;;;;5016478;23;20497;-74
2022/03/11 05:31:34;;;;;;;9.13;3.60;;;-3.60;86.30;;;;;;4956358;29;20429;-75
2022/03/11 05:34:00;;;;;;;8.90;4.90;;;-3.60;86.90;;;;;;4939165;29;20202;-76
2022/03/11 05:36:25;;;;;;;9.60;4.80;;;-3.60;86.70;;;;;;4956458;29;20171;-74
2022/03/11 05:38:51;;;;;;;7.97;4.93;;;-3.70;87.00;;;;;;4956153;29;20171;-75
2022/03/11 05:41:17;;;;;;;6.10;3.40;;;-3.70;87.30;;;;;;4956175;29;20197;-74
2022/03/11 05:43:43;;;;;;;8.53;4.10;;;-3.50;87.00;;;;;;4948647;29;20653;-75
2022/03/11 05:46:09;;;;;;;6.10;3.87;;;-3.20;85.90;;;;;;4936961;29;20431;-74
2022/03/11 05:48:35;;;;;;;9.20;4.20;;;-3.10;85.40;;;;;;4919749;29;20415;-74
2022/03/11 05:51:01;;;;;;;8.93;3.27;;;-3.00;85.40;;;;;;4937087;29;20439;-74
2022/03/11 05:53:26;;;;;;;6.33;4.53;;;-2.80;84.90;;;;;;4937012;29;20243;-74
2022/03/11 05:55:52;;;;;;;5.23;3.90;;;-2.50;83.70;;;;;;4936750;29;20200;-75
2022/03/11 05:58:17;;;;;;;7.50;3.60;;;-2.60;83.90;;;;;;4919695;29;20592;-73
2022/03/11 06:00:43;;;;;;;10.23;3.03;;;-2.40;83.50;;;;;;4937912;29;20211;-74
2022/03/11 06:03:08;;;;;;;7.07;4.13;;;-2.20;82.70;;;;;;4949954;29;20678;-74
2022/03/11 06:05:34;;;;;;;9.73;4.50;;;-2.00;82.50;;;;;;4941581;29;20188;-74
2022/03/11 06:07:59;;;;;;;9.63;4.67;;;-2.00;82.10;;;;;;4925889;29;20252;-75
2022/03/11 06:10:25;;;;;;;10.20;5.07;;;-1.60;81.80;;;;;;4917429;29;20172;-74
2022/03/11 06:12:51;;;;;;;7.70;4.70;;;-1.50;80.90;;;;;;4917336;29;20278;-74
2022/03/11 06:15:16;;;;;;;7.00;4.60;;;-1.30;80.00;;;;;;4917463;29;20467;-76
2022/03/11 06:17:42;;;;;;;5.10;3.07;;;-1.10;80.00;;;;;;4933515;29;20702;-75
2022/03/11 06:20:09;;;;;;;4.63;2.90;;;-1.00;80.00;;;;;;4955592;29;20270;-75
2022/03/11 06:22:36;;;;;;;9.10;5.50;;;-1.10;78.80;;;;;;4952732;29;20171;-75
2022/03/11 06:25:03;;;;;;;6.63;4.73;;;-0.80;79.10;;;;;;4934627;29;20424;-76
2022/03/11 06:27:28;;;;;;;5.60;3.30;;;-0.50;78.90;;;;;;4938184;29;20845;-76
2022/03/11 06:29:54;;;;;;;6.10;4.07;;;-0.20;77.50;;;;;;4924082;29;20423;-73
2022/03/11 06:32:19;;;;;;;7.80;4.87;;;-0.30;77.50;;;;;;4917100;29;20192;-76
2022/03/11 06:34:48;;;;;;;7.80;4.93;;;0.00;77.20;;;;;;4921737;29;20258;-74
2022/03/11 06:37:14;;;;;;;6.90;4.23;;;-0.20;77.10;;;;;;4935160;29;20171;-75
2022/03/11 06:39:39;;;;;;;9.47;3.70;;;0.10;77.00;;;;;;4935826;29;20416;-76
2022/03/11 06:42:05;;;;;;;7.77;3.90;;;0.20;76.80;;;;;;4935848;29;20494;-76
2022/03/11 06:44:31;;;;;;;7.90;3.97;;;0.70;75.50;;;;;;4931235;29;20194;-74
2022/03/11 06:46:57;;;;;;;6.57;3.63;;;1.10;74.90;;;;;;4935449;29;20558;-75
2022/03/11 06:49:25;;;;;;;9.60;4.50;;;0.60;75.30;;;;;;4954417;29;20966;-75
2022/03/11 06:51:50;;;;;;;7.37;4.47;;;0.60;75.90;;;;;;4955039;29;20229;-74
2022/03/11 06:54:16;;;;;;;10.07;4.57;;;0.80;75.50;;;;;;4938183;29;20907;-76
2022/03/11 06:56:41;;;;;;;11.73;3.37;;;0.90;75.40;;;;;;4938076;29;20175;-75
2022/03/11 06:59:07;;;;;;;6.57;4.60;;;1.00;75.30;;;;;;4954805;29;20181;-75
2022/03/11 07:01:33;;;;;;;9.00;4.30;;;0.80;75.10;;;;;;4943793;29;20297;-76
2022/03/11 07:03:58;;;;;;;9.27;4.63;;;0.70;76.00;;;;;;4936767;29;20183;-76
2022/03/11 07:06:24;;;;;;;3.53;2.90;;;0.60;76.40;;;;;;4954829;29;20537;-76
2022/03/11 07:08:50;;;;;;;3.73;3.23;;;0.80;75.90;;;;;;4954720;29;20229;-76
2022/03/11 07:11:15;;;;;;;6.33;3.37;;;1.10;75.30;;;;;;4954626;29;20566;-75
2022/03/11 07:13:41;;;;;;;9.17;4.00;;;0.80;75.50;;;;;;4937451;29;20462;-76
2022/03/11 07:16:08;;;;;;;4.70;3.30;;;0.90;75.60;;;;;;4954191;29;20190;-76
2022/03/11 07:18:34;;;;;;;5.47;4.30;;;0.80;75.60;;;;;;4937447;29;20170;-76
2022/03/11 07:21:01;;;;;;;18.00;5.20;;;0.80;76.90;;;;;;4937559;29;20585;-74
2022/03/11 07:23:27;;;;;;;7.47;4.87;;;1.20;76.20;;;;;;4954763;29;20244;-76
2022/03/11 07:25:53;;;;;;;6.97;4.00;;;1.80;75.00;;;;;;4937261;29;20425;-77
2022/03/11 07:28:20;;;;;;;11.33;4.27;;;2.40;73.10;;;;;;4954182;29;20521;-75
2022/03/11 07:30:45;;;;;;;9.53;4.90;;;1.80;73.40;;;;;;4954343;29;20194;-75
2022/03/11 07:33:12;;;;;;;7.87;4.67;;;1.80;73.70;;;;;;4937027;29;20466;-77
2022/03/11 07:35:38;;;;;;;11.70;6.30;;;1.80;73.80;;;;;;4954311;29;20163;-76
2022/03/11 07:38:03;;;;;;;9.40;5.77;;;2.30;73.60;;;;;;4954017;29;20437;-77
2022/03/11 07:40:29;;;;;;;8.23;4.70;;;2.80;72.30;;;;;;4954085;29;20660;-76
2022/03/11 07:42:54;;;;;;;14.33;5.87;;;3.10;71.10;;;;;;4954130;29;20258;-75
2022/03/11 07:45:21;;;;;;;8.47;4.93;;;2.90;71.60;;;;;;4954108;29;20602;-76
2022/03/11 07:47:46;;;;;;;6.47;3.90;;;2.40;72.30;;;;;;4953847;29;20175;-74
2022/03/11 07:50:12;;;;;;;10.47;4.33;;;2.00;73.10;;;;;;4954321;29;21057;-76
2022/03/11 07:52:38;;;;;;;5.40;4.50;;;1.60;74.00;;;;;;4954174;29;20170;-76
2022/03/11 07:55:06;;;;;;;5.70;3.90;;;1.10;76.00;;;;;;4936631;29;20174;-75
2022/03/11 07:57:32;;;;;;;3.47;2.50;;;0.60;78.20;;;;;;4926041;29;20449;-75
2022/03/11 08:00:00;;;;;;;4.73;3.60;;;0.50;78.80;;;;;;4920829;29;20443;-75
2022/03/11 08:02:27;;;;;;;12.53;5.97;;;0.20;79.00;;;;;;4927221;29;20193;-73
2022/03/11 08:04:53;;;;;;;8.07;3.90;;;0.10;79.10;;;;;;4945257;29;21100;-75
2022/03/11 08:07:18;;;;;;;6.13;4.20;;;0.10;80.20;;;;;;4917789;29;20515;-76
2022/03/11 08:09:44;;;;;;;9.77;4.77;;;0.30;79.70;;;;;;4937361;29;20915;-75
2022/03/11 08:12:10;;;;;;;7.37;4.07;;;0.30;80.30;;;;;;4953838;29;20194;-74
2022/03/11 08:14:35;;;;;;;10.50;3.17;;;0.40;80.80;;;;;;4936508;29;20353;-75
2022/03/11 08:17:01;;;;;;;8.53;3.40;;;0.30;80.30;;;;;;4953764;29;20811;-75
2022/03/11 08:19:26;;;;;;;8.30;3.83;;;0.30;80.40;;;;;;4953665;29;20178;-75
2022/03/11 08:21:52;;;;;;;10.10;3.70;;;0.50;81.20;;;;;;4936591;29;20202;-75
2022/03/11 08:24:19;;;;;;;7.83;3.13;;;0.60;81.50;;;;;;4950271;29;20187;-75
2022/03/11 08:26:45;;;;;;;4.97;3.87;;;0.50;80.10;;;;;;4934389;29;20184;-75
2022/03/11 08:29:11;;;;;;;4.53;3.23;;;0.50;80.50;;;;;;4934204;29;20548;-75
2022/03/11 08:31:36;;;;;;;7.70;4.57;;;0.50;80.50;;;;;;4935271;29;20535;-75
2022/03/11 08:34:02;;;;;;;8.63;5.40;;;0.40;80.60;;;;;;4934981;29;20736;-75
2022/03/11 08:36:27;;;;;;;8.43;5.77;;;0.70;80.90;;;;;;4934799;29;20685;-75
2022/03/11 08:38:53;;;;;;;6.10;3.87;;;0.70;80.70;;;;;;4917415;29;20182;-75
2022/03/11 08:41:19;;;;;;;11.83;4.70;;;1.00;81.00;;;;;;4934631;29;20666;-76
2022/03/11 08:43:49;;;;;;;12.97;6.33;;;0.90;80.30;;;;;;4934729;29;20725;-76
2022/03/11 08:46:15;;;;;;;8.23;4.43;;;0.80;80.30;;;;;;4934510;29;20423;-76
2022/03/11 08:48:41;;;;;;;4.63;3.43;;;1.10;80.30;;;;;;4934394;29;20422;-76
2022/03/11 08:51:07;;;;;;;6.40;4.13;;;1.10;79.50;;;;;;4934175;29;20443;-76
2022/03/11 08:53:33;;;;;;;6.53;3.10;;;0.80;79.70;;;;;;4934311;29;21164;-77
2022/03/11 08:55:58;;;;;;;8.90;4.50;;;0.60;80.50;;;;;;4934422;29;20184;-77
2022/03/11 08:58:24;;;;;;;5.87;3.40;;;0.90;81.10;;;;;;4934427;29;20415;-77
2022/03/11 09:00:49;;;;;;;6.70;4.07;;;1.80;79.50;;;;;;4937915;29;20254;-77
2022/03/11 09:03:15;;;;;;;8.37;4.33;;;2.60;76.90;;;;;;4937923;29;20175;-78
2022/03/11 09:05:40;;;;;;;5.23;3.77;;;2.80;75.30;;;;;;4920710;29;20179;-77
2022/03/11 09:08:09;;;;;;;6.37;4.83;;;2.90;74.90;;;;;;4937570;29;20179;-78
2022/03/11 09:10:35;;;;;;;9.37;4.90;;;3.70;74.40;;;;;;4937939;29;20195;-75
2022/03/11 09:13:01;;;;;;;5.53;3.67;;;3.50;72.60;;;;;;4937850;29;20470;-75
2022/03/11 09:15:26;;;;;;;6.40;3.80;;;3.80;72.10;;;;;;4938166;29;20495;-76
2022/03/11 09:17:52;;;;;;;4.50;2.83;;;3.70;71.40;;;;;;4937600;29;20180;-75
2022/03/11 09:20:17;;;;;;;7.83;4.50;;;3.70;72.60;;;;;;4937734;29;20228;-74
2022/03/11 09:22:43;;;;;;;5.90;3.10;;;3.50;72.20;;;;;;4937592;29;20825;-76
2022/03/11 09:25:10;;;;;;;8.77;4.70;;;3.80;72.80;;;;;;4937472;29;20183;-76
2022/03/11 09:27:36;;;;;;;5.20;3.87;;;4.00;71.00;;;;;;4936991;29;20214;-75
2022/03/11 09:30:05;;;;;;;4.30;2.80;;;3.90;71.20;;;;;;4921106;29;20466;-76
2022/03/11 09:32:31;;;;;;;5.93;3.20;;;4.30;70.60;;;;;;4937805;29;20435;-76
2022/03/11 09:34:58;;;;;;;25.03;3.83;;;4.30;69.90;;;;;;4920668;29;20463;-76
2022/03/11 09:37:23;;;;;;;13.47;5.27;;;4.30;70.00;;;;;;4920488;29;20187;-75
2022/03/11 09:39:49;;;;;;;9.57;4.23;;;3.90;68.90;;;;;;4937921;29;20418;-76
2022/03/11 09:42:14;;;;;;;6.03;3.87;;;4.60;70.20;;;;;;4937624;29;20270;-76
2022/03/11 09:44:40;;;;;;;8.77;4.80;;;4.60;69.40;;;;;;4920696;29;20777;-76
2022/03/11 09:47:07;;;;;;;10.60;4.07;;;4.30;69.30;;;;;;4937819;29;20175;-76
2022/03/11 09:49:35;;;;;;;31.77;4.27;;;4.70;70.00;;;;;;4938013;29;20415;-76
2022/03/11 09:52:05;;;;;;;8.87;4.40;;;4.60;69.70;;;;;;4938025;29;20446;-75
2022/03/11 09:54:31;;;;;;;9.07;4.47;;;4.80;68.10;;;;;;4937811;29;20466;-75
2022/03/11 09:56:58;;;;;;;7.00;4.10;;;4.40;69.00;;;;;;4938446;29;20411;-76
2022/03/11 09:59:24;;;;;;;11.13;3.87;;;4.20;68.60;;;;;;4935930;29;20433;-75
2022/03/11 10:01:50;;;;;;;5.90;4.30;;;4.60;68.60;;;;;;4936734;29;20435;-76
2022/03/11 10:04:15;;;;;;;6.47;3.97;;;4.30;67.50;;;;;;4938407;29;20417;-74
2022/03/11 10:06:46;;;;;;;4.63;2.77;;;3.90;67.60;;;;;;4938664;29;20179;-76
2022/03/11 10:09:18;;;;;;;4.80;3.30;;;3.80;68.30;;;;;;4921263;29;20592;-75
2022/03/11 10:11:49;;;;;;;4.47;3.20;;;4.20;68.60;;;;;;4938131;29;20515;-76
2022/03/11 10:14:16;;;;;;;5.87;3.77;;;4.30;68.30;;;;;;4938267;29;20518;-76
2022/03/11 10:16:44;;;;;;;8.77;4.97;;;4.70;67.80;;;;;;4938227;29;20414;-75
2022/03/11 10:19:13;;;;;;;11.10;4.40;;;4.60;67.70;;;;;;4921006;29;20463;-75
2022/03/11 10:21:43;;;;;;;6.73;3.50;;;4.70;67.70;;;;;;4921190;29;20431;-75
2022/03/11 10:24:16;;;;;;;4.60;3.00;;;4.40;67.40;;;;;;4938246;29;20439;-75
2022/03/11 10:26:52;;;;;;;3.90;3.20;;;4.30;66.70;;;;;;4938628;29;20415;-76
2022/03/11 10:29:25;;;;;;;6.50;4.47;;;4.10;67.00;;;;;;4938719;29;20395;-75
2022/03/11 10:31:53;;;;;;;7.00;3.90;;;4.20;68.20;;;;;;4959935;28;20427;-73
2022/03/11 10:34:18;;;;;;;5.77;3.07;;;4.40;67.40;;;;;;4960270;29;20536;-74
2022/03/11 10:37:07;;;;;;;4.27;2.43;;;3.90;67.40;;;;;;4961326;28;20435;-72
2022/03/11 10:39:38;;;;;;;5.77;3.87;;;3.80;67.20;;;;;;4960162;28;20176;-74
2022/03/11 10:42:23;;;;;;;6.97;4.27;;;3.70;67.70;;;;;;4920029;29;20435;-76
2022/03/11 10:45:00;;;;;;;8.90;3.80;;;3.70;67.90;;;;;;4920226;29;20438;-75
2022/03/11 10:47:36;;;;;;;5.50;3.77;;;3.80;67.50;;;;;;4936839;29;20482;-74
2022/03/11 10:50:07;;;;;;;7.00;3.60;;;4.10;68.10;;;;;;4920204;29;20929;-74
2022/03/11 10:52:48;;;;;;;9.40;5.53;;;4.20;66.90;;;;;;4919933;29;20502;-75
2022/03/11 10:55:17;;;;;;;8.17;4.20;;;4.00;67.30;;;;;;4936617;29;20419;-75
2022/03/11 10:57:43;;;;;;;5.33;4.43;;;4.20;66.90;;;;;;4936672;29;20499;-73
2022/03/11 11:00:28;;;;;;;5.10;3.50;;;4.20;67.30;;;;;;4919460;29;20993;-76
2022/03/11 11:02:56;;;;;;;5.87;3.67;;;4.70;66.70;;;;;;4936498;29;20597;-76
2022/03/11 11:05:22;;;;;;;4.63;3.20;;;4.50;65.60;;;;;;4936517;29;20407;-74
2022/03/11 11:07:49;;;;;;;3.80;2.70;;;4.50;65.50;;;;;;4918844;29;20462;-75
2022/03/11 11:10:20;;;;;;;4.97;3.07;;;4.10;65.60;;;;;;4919283;29;20419;-75
2022/03/11 11:12:46;;;;;;;4.67;3.20;;;4.10;66.00;;;;;;4928561;29;20416;-75
2022/03/11 11:15:13;;;;;;;8.47;4.13;;;3.90;66.50;;;;;;4919340;29;20422;-73
2022/03/11 11:17:41;;;;;;;7.70;3.20;;;3.80;65.90;;;;;;4935941;29;20518;-73
2022/03/11 12:59:53;;;;;;;9.77;4.73;;;5.40;61.60;;;;;;5356449;23;20497;-75
2022/03/11 13:02:19;;;;;;;6.20;4.20;;;5.60;62.90;;;;;;4931755;29;20448;-75
2022/03/11 13:04:45;;;;;;;10.80;4.20;;;5.70;62.20;;;;;;4919465;29;20666;-75
2022/03/11 13:07:16;;;;;;;10.60;4.17;;;5.60;62.90;;;;;;4919012;29;20213;-75
2022/03/11 13:09:41;;;;;;;4.83;4.20;;;5.70;63.20;;;;;;4918562;29;20463;-75
2022/03/11 13:12:23;;;;;;;5.67;4.40;;;5.70;63.20;;;;;;4919396;29;20511;-73
2022/03/11 13:14:49;;;;;;;7.00;4.23;;;5.60;62.70;;;;;;4919050;29;20196;-73
2022/03/11 13:17:14;;;;;;;4.40;2.57;;;5.40;62.20;;;;;;4919067;29;20435;-73
2022/03/11 13:19:44;;;;;;;9.73;4.23;;;5.60;62.90;;;;;;4902096;29;20241;-74
2022/03/11 14:29:36;;;;;;;6.40;3.60;;;5.40;63.80;;;;;;4956442;23;20864;-76
2022/03/11 15:56:39;;;;;;;7.70;5.70;;;3.90;65.80;;;;;;4952181;29;20466;-66
2022/03/11 15:59:07;;;;;;;11.37;4.20;;;3.80;66.50;;;;;;4954400;29;20418;-66
2022/03/11 16:01:34;;;;;;;7.00;4.30;;;3.80;65.70;;;;;;4966099;28;20790;-67
2022/03/11 16:04:00;;;;;;;5.73;4.50;;;3.70;65.50;;;;;;4973926;28;20505;-65
2022/03/11 16:06:26;;;;;;;13.33;5.83;;;3.70;65.40;;;;;;4974945;28;20489;-70
2022/03/11 16:08:51;;;;;;;5.30;4.40;;;3.70;66.20;;;;;;4977369;28;20178;-66
2022/03/11 16:11:17;;;;;;;8.93;5.40;;;3.60;66.40;;;;;;4979828;28;20859;-66
2022/03/11 16:13:42;;;;;;;7.00;4.80;;;3.50;66.40;;;;;;4977790;28;20668;-79
2022/03/11 16:16:09;;;;;;;9.33;5.30;;;3.40;66.60;;;;;;4977833;28;20162;-77
2022/03/11 16:18:34;;;;;;;6.43;4.70;;;3.40;66.20;;;;;;4976043;28;20166;-77
2022/03/11 16:21:00;;;;;;;6.70;4.10;;;3.40;65.50;;;;;;4971132;28;21035;-77
2022/03/11 16:23:26;;;;;;;13.97;3.60;;;3.30;65.50;;;;;;4959438;28;20192;-75
2022/03/11 16:25:53;;;;;;;5.07;3.90;;;3.30;65.50;;;;;;4976898;28;20237;-75
2022/03/11 16:28:18;;;;;;;3.60;2.90;;;3.20;66.20;;;;;;4976452;28;20181;-76
2022/03/11 16:30:44;;;;;;;6.00;4.10;;;3.20;66.30;;;;;;4976538;28;20437;-74
2022/03/11 16:33:09;;;;;;;7.73;4.17;;;3.10;66.30;;;;;;4959814;28;20178;-75
2022/03/11 16:35:35;;;;;;;10.40;4.67;;;3.10;66.20;;;;;;4977029;28;20691;-75
2022/03/11 16:38:00;;;;;;;8.17;4.03;;;3.00;66.40;;;;;;4976782;28;20249;-76
2022/03/11 16:40:26;;;;;;;6.20;4.27;;;2.90;66.60;;;;;;4977112;28;20538;-75
2022/03/11 16:42:52;;;;;;;7.33;3.53;;;3.00;66.00;;;;;;4977294;28;20177;-75
2022/03/11 16:45:17;;;;;;;12.20;5.97;;;2.90;66.30;;;;;;4976269;28;20931;-76
2022/03/11 16:47:44;;;;;;;7.00;4.40;;;2.90;66.10;;;;;;4958634;28;20205;-76
2022/03/11 16:50:15;;;;;;;7.70;5.07;;;2.80;66.10;;;;;;4969149;28;20672;-77
2022/03/11 16:52:40;;;;;;;6.57;4.07;;;2.80;66.20;;;;;;4958029;28;20429;-77
2022/03/11 16:55:06;;;;;;;5.33;4.23;;;2.80;66.00;;;;;;4976427;28;20464;-76
2022/03/11 16:57:32;;;;;;;5.00;3.60;;;2.70;66.30;;;;;;4975837;28;20174;-76
2022/03/11 16:59:59;;;;;;;5.53;3.70;;;2.70;66.30;;;;;;4973477;28;20417;-77
2022/03/11 17:02:24;;;;;;;3.77;3.13;;;2.60;66.50;;;;;;4976285;28;20182;-76
2022/03/11 17:04:50;;;;;;;9.67;3.83;;;2.60;66.20;;;;;;4976273;28;20500;-76
2022/03/11 17:07:15;;;;;;;8.20;4.23;;;2.50;66.20;;;;;;4958738;28;20538;-78
2022/03/11 17:09:41;;;;;;;6.07;4.43;;;2.50;66.50;;;;;;4975972;28;20178;-76
2022/03/11 17:12:07;;;;;;;4.63;4.10;;;2.50;66.10;;;;;;4976096;28;20194;-75
2022/03/11 17:14:32;;;;;;;4.20;3.53;;;2.50;66.20;;;;;;4975967;28;20225;-77
2022/03/11 17:16:58;;;;;;;7.87;4.20;;;2.40;66.20;;;;;;4958638;28;20170;-78
2022/03/11 17:19:23;;;;;;;4.53;4.10;;;2.40;66.20;;;;;;4939113;29;20167;-76
2022/03/11 17:21:49;;;;;;;7.60;3.50;;;2.40;66.10;;;;;;4956564;29;20688;-75
2022/03/11 17:24:15;;;;;;;5.53;3.27;;;2.30;66.90;;;;;;4939071;29;20552;-77
2022/03/11 17:26:41;;;;;;;9.40;3.00;;;2.30;66.60;;;;;;4956570;29;20202;-76
2022/03/11 17:29:06;;;;;;;7.73;3.40;;;2.30;66.60;;;;;;4956301;29;20182;-76
2022/03/11 17:31:32;;;;;;;3.17;2.70;;;2.30;66.70;;;;;;4939181;29;20203;-75
2022/03/11 17:33:57;;;;;;;3.90;3.20;;;2.20;66.50;;;;;;4956368;29;20206;-76
2022/03/11 17:36:23;;;;;;;7.00;3.70;;;2.20;66.50;;;;;;4939313;29;20178;-77
2022/03/11 17:38:49;;;;;;;4.83;3.70;;;2.20;66.50;;;;;;4956195;29;20171;-78
2022/03/11 17:41:15;;;;;;;4.57;3.40;;;2.10;66.80;;;;;;4956284;29;20198;-77
2022/03/11 17:43:41;;;;;;;5.80;3.50;;;2.10;67.30;;;;;;4956339;29;20238;-77
2022/03/11 17:46:07;;;;;;;7.87;4.10;;;2.00;67.10;;;;;;4962992;28;20932;-75
2022/03/11 17:48:33;;;;;;;7.80;4.60;;;2.10;66.70;;;;;;4975318;28;20171;-75
2022/03/11 17:50:59;;;;;;;6.47;3.30;;;2.10;66.70;;;;;;4957820;28;20488;-76
2022/03/11 17:53:27;;;;;;;13.10;6.43;;;2.10;66.40;;;;;;4975553;28;20457;-77
2022/03/11 17:55:53;;;;;;;12.40;5.80;;;2.10;66.40;;;;;;4975394;28;20442;-78
2022/03/11 17:58:19;;;;;;;7.70;4.27;;;1.90;67.60;;;;;;4974892;28;20426;-78
2022/03/11 18:00:45;;;;;;;19.97;4.00;;;1.90;67.20;;;;;;4975135;28;20289;-78
2022/03/11 18:03:10;;;;;;;2.97;2.40;;;2.00;66.50;;;;;;4975842;28;20449;-78
2022/03/11 18:05:37;;;;;;;3.90;2.93;;;2.00;66.40;;;;;;4958239;28;20178;-77
2022/03/11 18:08:03;;;;;;;6.90;3.97;;;1.90;66.50;;;;;;4975366;28;20545;-77
2022/03/11 18:10:29;;;;;;;8.20;3.63;;;1.90;66.60;;;;;;4958214;28;20472;-78
2022/03/11 18:12:56;;;;;;;15.93;3.87;;;1.90;66.40;;;;;;4958506;28;20413;-78
2022/03/11 18:15:21;;;;;;;6.77;3.40;;;1.80;66.40;;;;;;4957900;28;20445;-77
2022/03/11 18:17:48;;;;;;;5.10;4.10;;;1.90;66.20;;;;;;4957508;28;20406;-76
2022/03/11 18:20:14;;;;;;;4.87;2.73;;;1.80;66.20;;;;;;4975047;28;20170;-77
2022/03/11 18:22:41;;;;;;;6.67;5.10;;;1.80;66.30;;;;;;4957641;28;20922;-76
2022/03/11 18:25:09;;;;;;;6.40;4.30;;;1.80;66.40;;;;;;4974651;28;20904;-78
2022/03/11 18:27:35;;;;;;;4.63;3.57;;;1.70;66.70;;;;;;4974626;28;20420;-77
2022/03/11 18:30:01;;;;;;;6.70;4.10;;;1.80;66.40;;;;;;4974624;28;20825;-77
2022/03/11 18:32:27;;;;;;;4.20;2.50;;;1.70;66.50;;;;;;4974434;28;20202;-78
2022/03/11 18:34:53;;;;;;;5.40;3.20;;;1.60;66.90;;;;;;4974430;28;20461;-78
2022/03/11 18:37:19;;;;;;;5.37;3.13;;;1.50;67.00;;;;;;4957154;28;20181;-77
2022/03/11 18:39:44;;;;;;;7.43;3.93;;;1.60;66.60;;;;;;4973634;28;20425;-78
2022/03/11 18:42:10;;;;;;;4.30;2.90;;;1.60;66.40;;;;;;4956376;28;20288;-78
2022/03/11 18:44:35;;;;;;;7.37;3.87;;;1.60;66.40;;;;;;4958098;28;20182;-78
2022/03/11 18:47:02;;;;;;;4.60;3.13;;;1.60;66.40;;;;;;4976276;28;20174;-79
2022/03/11 18:49:28;;;;;;;5.17;3.93;;;1.50;66.60;;;;;;4975754;28;20572;-78
2022/03/11 18:51:55;;;;;;;4.30;2.87;;;1.50;66.40;;;;;;4976511;28;20445;-78
2022/03/11 18:54:21;;;;;;;7.37;4.00;;;1.50;66.30;;;;;;4976158;28;20481;-78
2022/03/11 18:56:47;;;;;;;7.03;3.63;;;1.50;66.20;;;;;;4975867;28;20413;-77
2022/03/11 18:59:12;;;;;;;10.63;5.00;;;1.50;66.10;;;;;;4974371;28;20962;-76
2022/03/11 19:01:38;;;;;;;10.33;5.17;;;1.40;66.70;;;;;;4974385;28;20666;-77
2022/03/11 19:04:04;;;;;;;6.47;3.83;;;1.40;66.60;;;;;;4972926;28;20186;-76
2022/03/11 19:06:29;;;;;;;5.33;3.90;;;1.30;66.80;;;;;;4954300;28;20190;-77
2022/03/11 19:08:55;;;;;;;5.00;3.43;;;1.30;66.60;;;;;;4954736;29;20179;-77
2022/03/11 19:11:22;;;;;;;3.67;2.63;;;1.30;67.00;;;;;;4951198;28;20229;-77
2022/03/11 19:13:48;;;;;;;3.43;2.20;;;1.30;66.60;;;;;;4947193;28;20207;-77
2022/03/11 19:16:16;;;;;;;8.17;3.50;;;1.30;66.70;;;;;;4973673;28;20421;-77
2022/03/11 19:18:42;;;;;;;12.40;4.20;;;1.30;66.60;;;;;;4956032;28;20450;-77
2022/03/11 19:21:09;;;;;;;6.63;3.20;;;1.20;67.00;;;;;;4956375;28;20877;-77
2022/03/11 19:23:36;;;;;;;7.30;3.70;;;1.10;67.30;;;;;;4973683;28;21142;-78
2022/03/11 19:26:05;;;;;;;12.00;4.67;;;1.30;66.50;;;;;;4956597;28;20428;-77
2022/03/11 19:28:31;;;;;;;8.80;5.67;;;1.30;66.40;;;;;;4954917;28;20947;-76
2022/03/11 19:30:57;;;;;;;4.33;2.60;;;1.10;67.20;;;;;;4956059;28;20469;-77
2022/03/11 19:33:23;;;;;;;6.10;3.50;;;1.10;67.40;;;;;;4973440;28;20799;-77
2022/03/11 19:35:55;;;;;;;11.33;4.23;;;1.00;67.40;;;;;;4972592;28;20484;-77
2022/03/11 19:38:23;;;;;;;5.27;3.53;;;1.20;66.40;;;;;;4972820;28;20246;-77
2022/03/11 19:40:52;;;;;;;6.60;3.30;;;1.10;66.90;;;;;;4972952;28;20429;-76
2022/03/11 19:43:18;;;;;;;5.33;2.70;;;1.10;66.90;;;;;;4972663;28;20417;-77
2022/03/11 19:45:45;;;;;;;7.40;3.23;;;1.10;66.80;;;;;;4972848;28;20417;-77
2022/03/11 19:48:11;;;;;;;3.63;2.63;;;1.00;67.20;;;;;;4954285;28;20449;-79
2022/03/11 19:50:37;;;;;;;10.17;3.10;;;1.00;67.00;;;;;;4973094;28;20437;-79
2022/03/11 19:53:04;;;;;;;3.40;2.80;;;1.00;67.00;;;;;;4956751;28;20205;-78
2022/03/11 19:55:29;;;;;;;10.80;3.20;;;1.00;67.00;;;;;;4957167;28;20249;-77
2022/03/11 19:57:55;;;;;;;5.77;2.50;;;1.00;66.50;;;;;;4974987;28;20914;-78
2022/03/11 20:00:21;;;;;;;6.10;3.57;;;1.00;66.40;;;;;;4957539;28;20671;-78
2022/03/11 20:02:46;;;;;;;4.60;2.97;;;0.90;66.60;;;;;;4957484;28;20422;-79
2022/03/11 20:05:12;;;;;;;3.70;2.77;;;1.00;65.80;;;;;;4974431;28;20604;-78
2022/03/11 20:07:44;;;;;;;4.53;2.70;;;1.00;65.10;;;;;;4975110;28;20261;-77
2022/03/11 20:10:10;;;;;;;9.60;3.20;;;0.90;65.40;;;;;;4974244;28;20177;-79
2022/03/11 20:12:42;;;;;;;6.20;2.50;;;1.00;65.30;;;;;;4957377;28;20987;-78
2022/03/11 20:15:09;;;;;;;5.53;3.73;;;0.90;65.30;;;;;;4956731;28;20464;-77
2022/03/11 20:17:35;;;;;;;4.57;3.10;;;0.90;65.70;;;;;;4956566;28;20422;-77
2022/03/11 20:20:01;;;;;;;6.60;3.60;;;0.80;65.70;;;;;;4974064;28;20772;-77
2022/03/11 20:22:26;;;;;;;8.03;3.97;;;0.80;66.30;;;;;;4937728;29;20199;-78
2022/03/11 20:24:52;;;;;;;6.17;3.07;;;0.70;65.90;;;;;;4954839;29;20924;-77
2022/03/11 20:27:19;;;;;;;5.90;2.37;;;0.70;66.00;;;;;;4954739;29;20892;-78
2022/03/11 20:29:46;;;;;;;4.90;2.67;;;0.70;65.80;;;;;;4954494;29;20182;-77
2022/03/11 20:32:12;;;;;;;9.07;3.70;;;0.70;65.80;;;;;;4955140;29;20430;-78
2022/03/11 20:34:40;;;;;;;4.87;2.67;;;0.70;66.00;;;;;;4937335;29;20458;-77
2022/03/11 20:37:11;;;;;;;3.87;2.63;;;0.60;66.00;;;;;;4953686;29;20410;-78
2022/03/11 20:39:41;;;;;;;7.63;4.00;;;0.60;65.70;;;;;;4955400;29;20410;-78
2022/03/11 20:42:07;;;;;;;5.90;3.70;;;0.70;65.40;;;;;;4955273;29;20426;-78
2022/03/11 20:44:34;;;;;;;3.97;2.87;;;0.70;65.10;;;;;;4953393;29;20441;-76
2022/03/11 20:47:01;;;;;;;3.73;2.67;;;0.70;65.30;;;;;;4954994;29;20427;-77
2022/03/11 20:49:28;;;;;;;5.50;3.10;;;0.60;65.30;;;;;;4953549;29;21136;-78
2022/03/11 20:51:53;;;;;;;14.63;8.93;;;0.70;65.00;;;;;;4954828;29;20438;-77
2022/03/11 20:54:19;;;;;;;6.73;3.00;;;0.60;65.30;;;;;;4937300;29;20879;-78
2022/03/11 20:56:44;;;;;;;5.37;3.97;;;0.40;66.00;;;;;;4958744;29;20238;-78
2022/03/11 20:59:10;;;;;;;8.53;3.40;;;0.40;66.10;;;;;;4941231;29;20183;-77
2022/03/11 21:01:35;;;;;;;8.57;4.90;;;0.50;65.60;;;;;;4941111;29;20202;-76
2022/03/11 21:04:01;;;;;;;3.33;2.60;;;0.50;65.90;;;;;;4941301;29;20269;-77
2022/03/11 21:06:26;;;;;;;8.47;3.70;;;0.40;66.20;;;;;;4958935;29;20175;-78
2022/03/11 21:08:53;;;;;;;5.80;2.77;;;0.40;66.10;;;;;;4958684;29;20171;-78
2022/03/11 21:11:19;;;;;;;6.20;3.47;;;0.30;66.30;;;;;;4956994;29;20198;-77